Gijon, Spain
Current Conditions -  °F | °C
As of 4:30 PM on Friday 28 Nov 2014 (Local Time) from LEAS Reporting Station
Broken Clouds Broken Clouds  
Wind Chill: 57°   Ceiling: 8400
Heat Index: 57°   Visibility: 6mi
Dew Point: 52°   Wind: 8mph
Humidity: 82%   Direction: 280°W
Pressure: 29.06"   Gusts: NA
Location:  43.55°N, 5.66°W
Report Text: LEAS 281530Z 28007KT 240V340 9999 FEW072 BKN084 14/11 Q0984 NOSIG
Loading
Personal Weather Stations






























Interactive Weather Map New forecast layout! Learn more

10-Day Weather Forecast

Advertisements
Track Severe Weather on mobile